Time;durP1;ratioP1;P1;durP2;ratioP2;P2;SDS_P1;SDS_P2;PMS_P1;PMS_P2;Temp;Humidity;BMP_temperature;BMP_pressure;BME280_temperature;BME280_humidity;BME280_pressure;Samples;Min_cycle;Max_cycle;Signal;HPM_P1;HPM_P2
2021/06/26 00:01:54;;;;;;;12.83;10.77;;;;;;;;;;5051277;28;20415;-70
2021/06/26 00:04:20;;;;;;;11.43;10.30;;;;;;;;;;5032965;28;20992;-70
2021/06/26 00:09:49;;;;;;;11.67;10.57;;;;;;;;;;5051113;28;20430;-71
2021/06/26 00:12:15;;;;;;;13.00;11.60;;;;;;;;;;5033134;28;20437;-71
2021/06/26 00:14:41;;;;;;;13.67;10.50;;;;;;;;;;5032701;28;20838;-71
2021/06/26 00:17:08;;;;;;;13.97;12.17;;;;;;;;;;5051948;28;20507;-71
2021/06/26 00:19:34;;;;;;;11.63;10.53;;;;;;;;;;5051997;28;20789;-70
2021/06/26 00:22:00;;;;;;;12.80;11.50;;;;;;;;;;5051911;28;20407;-70
2021/06/26 00:24:26;;;;;;;10.93;9.73;;;;;;;;;;5051965;28;20486;-71
2021/06/26 00:26:52;;;;;;;10.00;9.10;;;;;;;;;;5052054;28;20539;-71
2021/06/26 00:29:18;;;;;;;9.93;8.90;;;;;;;;;;5051868;28;20967;-71
2021/06/26 00:31:44;;;;;;;10.43;9.43;;;;;;;;;;5051239;28;20411;-71
2021/06/26 00:34:10;;;;;;;9.93;8.90;;;;;;;;;;5051642;28;20469;-69
2021/06/26 00:39:39;;;;;;;9.03;8.13;;;;;;;;;;5051388;28;20418;-71
2021/06/26 00:42:06;;;;;;;10.27;9.30;;;;;;;;;;5051648;28;20411;-71
2021/06/26 00:44:31;;;;;;;10.77;8.80;;;;;;;;;;5034084;28;20448;-70
2021/06/26 00:47:00;;;;;;;10.43;9.50;;;;;;;;;;5051611;28;20946;-70
2021/06/26 00:49:26;;;;;;;11.33;9.27;;;;;;;;;;5051388;28;20473;-70
2021/06/26 00:54:56;;;;;;;10.10;9.20;;;;;;;;;;5051358;28;20413;-71
2021/06/26 00:57:22;;;;;;;10.23;9.23;;;;;;;;;;5033604;28;20839;-70
2021/06/26 00:59:48;;;;;;;9.77;8.77;;;;;;;;;;5051525;28;20506;-71
2021/06/26 01:02:14;;;;;;;10.70;9.40;;;;;;;;;;5051668;28;20426;-69
2021/06/26 01:04:41;;;;;;;10.03;9.13;;;;;;;;;;5051524;28;20412;-70
2021/06/26 01:07:07;;;;;;;10.13;9.23;;;;;;;;;;5051445;28;20484;-71
2021/06/26 01:09:33;;;;;;;9.97;9.07;;;;;;;;;;5051312;28;20403;-70
2021/06/26 01:11:59;;;;;;;10.13;8.73;;;;;;;;;;5051441;28;20464;-70
2021/06/26 01:14:29;;;;;;;12.07;9.50;;;;;;;;;;5051291;28;20830;-70
2021/06/26 01:16:56;;;;;;;10.17;9.07;;;;;;;;;;5051256;28;20817;-68
2021/06/26 01:19:22;;;;;;;10.10;9.20;;;;;;;;;;5033539;28;20422;-70
2021/06/26 01:24:53;;;;;;;10.17;9.20;;;;;;;;;;5051130;28;20453;-70
2021/06/26 01:27:19;;;;;;;11.23;10.10;;;;;;;;;;5051196;28;20445;-70
2021/06/26 01:29:52;;;;;;;10.87;9.77;;;;;;;;;;5051122;28;20411;-70
2021/06/26 01:32:18;;;;;;;10.03;9.03;;;;;;;;;;5051022;28;20407;-71
2021/06/26 01:34:44;;;;;;;14.10;11.50;;;;;;;;;;5050855;28;20443;-71
2021/06/26 01:40:15;;;;;;;12.10;10.80;;;;;;;;;;5051216;28;20828;-68
2021/06/26 01:42:41;;;;;;;11.73;10.53;;;;;;;;;;5051016;28;20407;-70
2021/06/26 01:45:07;;;;;;;12.17;10.83;;;;;;;;;;5054664;28;20407;-70
2021/06/26 01:47:33;;;;;;;12.83;11.53;;;;;;;;;;5054873;28;20935;-69
2021/06/26 01:50:00;;;;;;;13.27;11.90;;;;;;;;;;5034560;28;20456;-71
2021/06/26 01:52:26;;;;;;;12.10;10.90;;;;;;;;;;5033404;28;20431;-70
2021/06/26 01:54:52;;;;;;;13.40;12.00;;;;;;;;;;5033172;28;20714;-72
2021/06/26 01:57:19;;;;;;;12.07;10.87;;;;;;;;;;5034570;28;20427;-70
2021/06/26 01:59:45;;;;;;;11.77;10.57;;;;;;;;;;5034519;28;20423;-70
2021/06/26 02:02:11;;;;;;;10.80;9.50;;;;;;;;;;5034442;28;20420;-70
2021/06/26 02:04:37;;;;;;;11.70;10.50;;;;;;;;;;5034410;28;20435;-70
2021/06/26 02:10:07;;;;;;;14.73;10.10;;;;;;;;;;5034421;28;20419;-70
2021/06/26 02:12:33;;;;;;;10.93;9.73;;;;;;;;;;5034463;28;20415;-70
2021/06/26 02:14:59;;;;;;;11.30;8.93;;;;;;;;;;5034211;28;20719;-70
2021/06/26 02:17:25;;;;;;;11.63;10.23;;;;;;;;;;5034262;28;20439;-70
2021/06/26 02:19:51;;;;;;;11.43;9.20;;;;;;;;;;5034147;28;20504;-70
2021/06/26 02:25:20;;;;;;;14.23;10.50;;;;;;;;;;5034225;28;20489;-70
2021/06/26 02:27:46;;;;;;;14.07;11.53;;;;;;;;;;5031578;28;20900;-70
2021/06/26 02:30:12;;;;;;;15.53;11.40;;;;;;;;;;5034277;28;20416;-70
2021/06/26 02:32:39;;;;;;;19.67;12.20;;;;;;;;;;5034378;28;20793;-71
2021/06/26 02:35:05;;;;;;;16.30;11.60;;;;;;;;;;5033787;28;20458;-70
2021/06/26 02:40:35;;;;;;;20.87;12.80;;;;;;;;;;5033928;28;20411;-70
2021/06/26 02:43:01;;;;;;;14.90;11.23;;;;;;;;;;5033726;28;20866;-70
2021/06/26 02:45:27;;;;;;;12.40;11.10;;;;;;;;;;5033828;28;20448;-70
2021/06/26 02:47:53;;;;;;;15.87;10.70;;;;;;;;;;5036323;28;20883;-70
2021/06/26 02:50:19;;;;;;;14.90;11.67;;;;;;;;;;5053268;28;20560;-69
2021/06/26 02:52:46;;;;;;;12.10;10.90;;;;;;;;;;5053724;28;20471;-70
2021/06/26 02:55:13;;;;;;;12.73;11.13;;;;;;;;;;5052826;28;20569;-69
2021/06/26 02:57:39;;;;;;;13.97;10.73;;;;;;;;;;5053219;28;20442;-68
2021/06/26 03:00:06;;;;;;;22.50;10.90;;;;;;;;;;5053591;28;20777;-70
2021/06/26 03:02:32;;;;;;;13.33;11.17;;;;;;;;;;5053632;28;20407;-70
2021/06/26 03:04:58;;;;;;;11.53;10.33;;;;;;;;;;5053456;28;20907;-70
2021/06/26 03:10:28;;;;;;;12.60;10.40;;;;;;;;;;5053183;28;20775;-70
2021/06/26 03:12:54;;;;;;;13.87;11.00;;;;;;;;;;5035513;28;20427;-70
2021/06/26 03:15:20;;;;;;;13.00;9.90;;;;;;;;;;5052802;28;21010;-70
2021/06/26 03:17:46;;;;;;;13.50;10.47;;;;;;;;;;5052934;28;20500;-70
2021/06/26 03:20:12;;;;;;;13.40;10.53;;;;;;;;;;5034755;28;20411;-69
2021/06/26 03:25:41;;;;;;;12.50;10.80;;;;;;;;;;5053038;28;20531;-70
2021/06/26 03:28:07;;;;;;;12.77;9.93;;;;;;;;;;5052968;28;20506;-69
2021/06/26 03:30:33;;;;;;;12.60;10.27;;;;;;;;;;5052957;28;20421;-70
2021/06/26 03:32:59;;;;;;;12.80;10.73;;;;;;;;;;5034973;28;20453;-68
2021/06/26 03:35:25;;;;;;;13.73;11.60;;;;;;;;;;5052415;28;20901;-70
2021/06/26 03:40:55;;;;;;;13.30;11.27;;;;;;;;;;5052779;28;20473;-69
2021/06/26 03:43:21;;;;;;;14.70;12.33;;;;;;;;;;5052940;28;20411;-70
2021/06/26 03:45:47;;;;;;;12.60;11.30;;;;;;;;;;5052453;28;20435;-70
2021/06/26 03:48:13;;;;;;;14.47;11.90;;;;;;;;;;5052573;28;20474;-69
2021/06/26 03:50:41;;;;;;;12.20;11.00;;;;;;;;;;5052479;28;20419;-70
2021/06/26 03:53:07;;;;;;;12.83;10.10;;;;;;;;;;5052349;28;20442;-71
2021/06/26 03:55:33;;;;;;;16.13;12.43;;;;;;;;;;5052494;28;20819;-70
2021/06/26 03:57:59;;;;;;;12.93;11.37;;;;;;;;;;5052334;28;20407;-69
2021/06/26 04:00:25;;;;;;;15.77;13.47;;;;;;;;;;5052205;28;20506;-70
2021/06/26 04:02:51;;;;;;;15.00;12.40;;;;;;;;;;5052253;28;20542;-69
2021/06/26 04:05:17;;;;;;;13.40;11.93;;;;;;;;;;5052133;28;20722;-71
2021/06/26 04:10:46;;;;;;;15.30;11.60;;;;;;;;;;5052379;28;20740;-70
2021/06/26 04:13:12;;;;;;;15.50;13.67;;;;;;;;;;5052215;28;20407;-70
2021/06/26 04:15:38;;;;;;;15.37;12.93;;;;;;;;;;5052406;28;20909;-69
2021/06/26 04:18:04;;;;;;;19.90;14.40;;;;;;;;;;5034369;28;20427;-70
2021/06/26 04:20:30;;;;;;;15.63;13.27;;;;;;;;;;5051940;28;20426;-70
2021/06/26 04:26:00;;;;;;;15.77;13.50;;;;;;;;;;5052013;28;20460;-71
2021/06/26 04:28:26;;;;;;;18.40;13.63;;;;;;;;;;5051949;28;20422;-70
2021/06/26 04:30:52;;;;;;;15.03;13.37;;;;;;;;;;5052203;28;20411;-70
2021/06/26 04:33:18;;;;;;;21.30;13.97;;;;;;;;;;5051947;28;20444;-69
2021/06/26 04:35:44;;;;;;;20.03;14.20;;;;;;;;;;5051634;28;20952;-70
2021/06/26 04:38:10;;;;;;;17.63;14.10;;;;;;;;;;5051869;28;20418;-71
2021/06/26 04:40:36;;;;;;;18.60;15.17;;;;;;;;;;5051723;28;20403;-68
2021/06/26 04:43:04;;;;;;;17.70;14.20;;;;;;;;;;5051744;28;20438;-70
2021/06/26 04:45:30;;;;;;;19.07;15.53;;;;;;;;;;5051902;28;20407;-71
2021/06/26 04:48:00;;;;;;;19.90;14.57;;;;;;;;;;5051498;28;20486;-71
2021/06/26 04:50:26;;;;;;;20.17;15.20;;;;;;;;;;5051597;28;20931;-70
2021/06/26 04:55:55;;;;;;;15.83;14.13;;;;;;;;;;5051805;28;20473;-70
2021/06/26 04:58:22;;;;;;;17.70;14.43;;;;;;;;;;5051645;28;20419;-69
2021/06/26 05:00:51;;;;;;;16.80;13.63;;;;;;;;;;5051762;28;20418;-70
2021/06/26 05:03:18;;;;;;;16.03;13.27;;;;;;;;;;5051740;28;20476;-71
2021/06/26 05:05:44;;;;;;;17.50;14.50;;;;;;;;;;5051595;28;20527;-71
2021/06/26 05:11:14;;;;;;;18.40;15.13;;;;;;;;;;5051481;28;20488;-70
2021/06/26 05:13:40;;;;;;;17.63;15.30;;;;;;;;;;5051603;28;20521;-71
2021/06/26 05:16:06;;;;;;;17.20;14.60;;;;;;;;;;5051295;28;20573;-69
2021/06/26 05:18:32;;;;;;;17.40;14.93;;;;;;;;;;5053836;28;20421;-69
2021/06/26 05:20:58;;;;;;;13.97;12.23;;;;;;;;;;5055447;28;20423;-70
2021/06/26 05:26:29;;;;;;;15.60;13.57;;;;;;;;;;5055331;28;20419;-70
2021/06/26 05:28:55;;;;;;;14.20;12.70;;;;;;;;;;5055245;28;20419;-71
2021/06/26 05:31:21;;;;;;;15.40;13.73;;;;;;;;;;5055268;28;20433;-71
2021/06/26 05:33:47;;;;;;;17.57;14.20;;;;;;;;;;5055092;28;20450;-69
2021/06/26 05:36:13;;;;;;;17.60;14.70;;;;;;;;;;5054988;28;20592;-71
2021/06/26 05:38:39;;;;;;;18.00;13.80;;;;;;;;;;5037346;28;20423;-70
2021/06/26 05:41:05;;;;;;;16.77;14.23;;;;;;;;;;5055098;28;20890;-70
2021/06/26 05:43:31;;;;;;;18.20;14.63;;;;;;;;;;5054821;28;20481;-71
2021/06/26 05:45:57;;;;;;;18.70;14.40;;;;;;;;;;5054828;28;20418;-72
2021/06/26 05:48:23;;;;;;;19.00;15.70;;;;;;;;;;5033721;28;20537;-71
2021/06/26 05:50:49;;;;;;;19.53;15.63;;;;;;;;;;5034907;28;20775;-71
2021/06/26 05:56:18;;;;;;;17.67;15.83;;;;;;;;;;5034537;28;20569;-70
2021/06/26 05:58:44;;;;;;;17.13;15.30;;;;;;;;;;5033517;28;20428;-71
2021/06/26 06:01:11;;;;;;;17.43;14.80;;;;;;;;;;5034989;28;20470;-69
2021/06/26 06:03:41;;;;;;;17.90;15.57;;;;;;;;;;5034753;28;20455;-71
2021/06/26 06:06:07;;;;;;;16.03;14.40;;;;;;;;;;5033091;28;20542;-69
2021/06/26 06:11:36;;;;;;;16.90;14.60;;;;;;;;;;5034560;28;20439;-71
2021/06/26 06:14:02;;;;;;;16.60;14.80;;;;;;;;;;5034314;28;20416;-71
2021/06/26 06:16:28;;;;;;;20.40;15.60;;;;;;;;;;5034341;28;20543;-71
2021/06/26 06:18:54;;;;;;;17.67;15.87;;;;;;;;;;5034669;28;20442;-71
2021/06/26 06:21:21;;;;;;;19.27;17.03;;;;;;;;;;5034234;28;20418;-70
2021/06/26 06:26:50;;;;;;;18.33;16.03;;;;;;;;;;5034275;28;20427;-70
2021/06/26 06:29:16;;;;;;;19.60;15.70;;;;;;;;;;5033615;28;20421;-69
2021/06/26 06:31:42;;;;;;;16.73;15.00;;;;;;;;;;5034216;28;20435;-69
2021/06/26 06:34:08;;;;;;;17.30;15.13;;;;;;;;;;5034083;28;20420;-69
2021/06/26 06:36:36;;;;;;;20.37;17.07;;;;;;;;;;5034117;28;20479;-70
2021/06/26 06:39:02;;;;;;;18.20;16.13;;;;;;;;;;5033730;28;20478;-70
2021/06/26 06:41:27;;;;;;;18.23;16.43;;;;;;;;;;5033000;28;20832;-71
2021/06/26 06:43:53;;;;;;;18.00;15.47;;;;;;;;;;5034132;28;20424;-71
2021/06/26 06:46:19;;;;;;;19.40;15.97;;;;;;;;;;5033900;28;20428;-69
2021/06/26 06:48:45;;;;;;;20.20;14.73;;;;;;;;;;5043734;28;20521;-72
2021/06/26 06:51:11;;;;;;;16.90;15.10;;;;;;;;;;5018529;28;20439;-69
2021/06/26 06:56:41;;;;;;;17.47;15.57;;;;;;;;;;5053602;28;20503;-70
2021/06/26 06:59:07;;;;;;;18.07;16.30;;;;;;;;;;5053371;28;20408;-73
2021/06/26 07:01:33;;;;;;;19.67;13.80;;;;;;;;;;5053425;28;20426;-69
2021/06/26 07:03:59;;;;;;;22.10;16.57;;;;;;;;;;5053389;28;20419;-71
2021/06/26 07:06:25;;;;;;;15.47;13.97;;;;;;;;;;5053208;28;20541;-70
2021/06/26 07:11:55;;;;;;;17.03;14.63;;;;;;;;;;5053093;28;21050;-72
2021/06/26 07:14:21;;;;;;;16.97;15.10;;;;;;;;;;5053370;28;20443;-71
2021/06/26 07:16:46;;;;;;;15.40;13.80;;;;;;;;;;5052997;28;20824;-70
2021/06/26 07:19:12;;;;;;;17.27;14.90;;;;;;;;;;5053150;28;20403;-69
2021/06/26 07:21:38;;;;;;;17.10;13.60;;;;;;;;;;5053104;28;20936;-70
2021/06/26 07:27:08;;;;;;;16.20;14.10;;;;;;;;;;5053084;28;20457;-72
2021/06/26 07:29:35;;;;;;;15.43;13.87;;;;;;;;;;5052993;28;20422;-71
2021/06/26 07:32:01;;;;;;;15.90;14.30;;;;;;;;;;5053058;28;20844;-70
2021/06/26 07:34:27;;;;;;;15.23;13.73;;;;;;;;;;5034861;28;20505;-71
2021/06/26 07:36:53;;;;;;;14.67;12.60;;;;;;;;;;5052599;28;20543;-70
2021/06/26 07:39:19;;;;;;;13.30;11.87;;;;;;;;;;5052733;28;20927;-70
2021/06/26 07:41:45;;;;;;;18.20;13.10;;;;;;;;;;5051886;28;20411;-68
2021/06/26 07:44:11;;;;;;;13.30;11.37;;;;;;;;;;5052696;28;20891;-71
2021/06/26 07:46:38;;;;;;;12.67;11.50;;;;;;;;;;5052973;28;20778;-72
2021/06/26 07:49:04;;;;;;;11.90;10.80;;;;;;;;;;5031038;28;20530;-71
2021/06/26 07:51:30;;;;;;;11.40;10.20;;;;;;;;;;5028635;28;20423;-71
2021/06/26 07:57:00;;;;;;;10.90;9.90;;;;;;;;;;5032524;28;20992;-71
2021/06/26 07:59:26;;;;;;;10.40;9.40;;;;;;;;;;5032382;28;20420;-71
2021/06/26 08:01:52;;;;;;;9.50;8.70;;;;;;;;;;5032373;28;20439;-72
2021/06/26 08:04:19;;;;;;;9.60;8.70;;;;;;;;;;5032491;28;20452;-68
2021/06/26 08:06:45;;;;;;;9.93;9.00;;;;;;;;;;5032402;28;20427;-69
2021/06/26 08:12:16;;;;;;;11.13;9.13;;;;;;;;;;5032341;28;20465;-72
2021/06/26 08:14:43;;;;;;;10.93;9.93;;;;;;;;;;5032525;28;20420;-69
2021/06/26 08:17:10;;;;;;;9.93;8.97;;;;;;;;;;5032480;28;20517;-68
2021/06/26 08:19:36;;;;;;;10.83;9.83;;;;;;;;;;5032216;28;20408;-71
2021/06/26 08:22:02;;;;;;;10.20;9.13;;;;;;;;;;5030621;28;20513;-70
2021/06/26 08:30:43;;;;;;;9.47;8.37;;;;;;;;;;5007335;28;20562;-70
2021/06/26 08:33:09;;;;;;;11.77;10.67;;;;;;;;;;5012026;28;20457;-71
2021/06/26 08:35:35;;;;;;;10.67;9.63;;;;;;;;;;5011411;28;20483;-72
2021/06/26 08:38:01;;;;;;;11.17;10.10;;;;;;;;;;5011449;28;20424;-69
2021/06/26 08:40:27;;;;;;;12.60;10.23;;;;;;;;;;5011884;28;20463;-69
2021/06/26 08:42:53;;;;;;;12.20;9.50;;;;;;;;;;5011617;28;20915;-70
2021/06/26 08:45:20;;;;;;;11.40;10.20;;;;;;;;;;5011660;28;20421;-72
2021/06/26 08:47:47;;;;;;;10.77;9.77;;;;;;;;;;5011878;28;20472;-71
2021/06/26 08:50:14;;;;;;;10.77;9.40;;;;;;;;;;5011697;28;20423;-71
2021/06/26 08:52:40;;;;;;;10.40;9.50;;;;;;;;;;5013352;28;20432;-71
2021/06/26 08:55:07;;;;;;;10.50;9.50;;;;;;;;;;5016244;28;20432;-71
2021/06/26 08:57:34;;;;;;;11.07;10.07;;;;;;;;;;5015921;28;20483;-69
2021/06/26 09:03:07;;;;;;;10.43;9.37;;;;;;;;;;5015748;28;20407;-69
2021/06/26 09:05:33;;;;;;;9.03;8.23;;;;;;;;;;5015120;28;20413;-70
2021/06/26 09:08:09;;;;;;;10.50;9.50;;;;;;;;;;4996920;28;20911;-70
2021/06/26 09:10:35;;;;;;;9.20;8.43;;;;;;;;;;4996813;28;20581;-70
2021/06/26 09:13:10;;;;;;;10.67;9.70;;;;;;;;;;5015159;28;20444;-70
2021/06/26 09:15:36;;;;;;;10.13;8.83;;;;;;;;;;5015493;28;20962;-70
2021/06/26 09:18:10;;;;;;;12.23;11.07;;;;;;;;;;5015567;28;20423;-71
2021/06/26 09:20:38;;;;;;;10.87;9.70;;;;;;;;;;5015686;28;20540;-70
2021/06/26 09:23:05;;;;;;;10.30;9.40;;;;;;;;;;5015536;28;20412;-72
2021/06/26 09:25:31;;;;;;;8.67;7.97;;;;;;;;;;5015736;28;20405;-70
2021/06/26 09:33:56;;;;;;;10.47;9.47;;;;;;;;;;5014712;28;20760;-69
2021/06/26 09:36:24;;;;;;;11.00;10.07;;;;;;;;;;5015205;28;20610;-69
2021/06/26 09:38:55;;;;;;;9.30;8.50;;;;;;;;;;5014641;28;20477;-70
2021/06/26 09:41:21;;;;;;;15.00;8.70;;;;;;;;;;5014855;28;20502;-72
2021/06/26 09:43:47;;;;;;;9.00;8.30;;;;;;;;;;5014680;28;20448;-70
2021/06/26 09:46:16;;;;;;;9.30;8.50;;;;;;;;;;5010941;28;20417;-69
2021/06/26 09:48:54;;;;;;;9.70;8.80;;;;;;;;;;5014589;28;20508;-69
2021/06/26 09:51:25;;;;;;;8.80;8.00;;;;;;;;;;5014829;28;20445;-71
2021/06/26 09:53:52;;;;;;;10.80;10.00;;;;;;;;;;5014702;28;20421;-71
2021/06/26 09:56:18;;;;;;;9.00;8.30;;;;;;;;;;5013332;28;20570;-71
2021/06/26 09:58:53;;;;;;;8.33;7.53;;;;;;;;;;5013318;28;20491;-72
2021/06/26 10:01:21;;;;;;;8.93;8.13;;;;;;;;;;5014657;28;20417;-71
2021/06/26 10:03:48;;;;;;;8.37;7.60;;;;;;;;;;5013823;28;20424;-70
2021/06/26 10:06:15;;;;;;;8.63;7.47;;;;;;;;;;5014310;28;20556;-71
2021/06/26 10:08:43;;;;;;;7.83;7.13;;;;;;;;;;5014444;28;20420;-72
2021/06/26 10:11:09;;;;;;;9.07;8.17;;;;;;;;;;5014745;28;20922;-75
2021/06/26 10:13:36;;;;;;;7.43;6.83;;;;;;;;;;4996624;28;20568;-70
2021/06/26 10:16:03;;;;;;;8.87;7.97;;;;;;;;;;5014107;28;20500;-71
2021/06/26 10:18:30;;;;;;;7.90;7.30;;;;;;;;;;4996486;28;20519;-71
2021/06/26 10:20:57;;;;;;;6.80;6.20;;;;;;;;;;5014190;28;20420;-71
2021/06/26 10:23:23;;;;;;;8.07;7.37;;;;;;;;;;5014351;28;20511;-71
2021/06/26 10:25:49;;;;;;;7.47;6.80;;;;;;;;;;5014348;28;20858;-71
2021/06/26 10:28:20;;;;;;;5.97;5.50;;;;;;;;;;5014124;28;20903;-71
2021/06/26 10:33:49;;;;;;;8.07;7.47;;;;;;;;;;5014000;28;20615;-72
2021/06/26 10:36:15;;;;;;;8.00;7.30;;;;;;;;;;5012491;28;20567;-70
2021/06/26 10:38:44;;;;;;;7.30;6.70;;;;;;;;;;5014080;28;20864;-71
2021/06/26 10:41:18;;;;;;;7.57;6.87;;;;;;;;;;5013969;28;20413;-70
2021/06/26 10:43:54;;;;;;;6.53;5.93;;;;;;;;;;5013522;28;20413;-71
2021/06/26 10:46:20;;;;;;;7.37;6.77;;;;;;;;;;5009920;28;20906;-70
2021/06/26 10:48:57;;;;;;;6.30;5.80;;;;;;;;;;5014054;28;20495;-69
2021/06/26 10:51:33;;;;;;;6.97;6.37;;;;;;;;;;5013949;28;20439;-71
2021/06/26 10:54:28;;;;;;;7.23;6.73;;;;;;;;;;5014111;28;20420;-71
2021/06/26 10:57:02;;;;;;;8.07;7.30;;;;;;;;;;4997381;28;20477;-68
2021/06/26 10:59:27;;;;;;;6.80;6.27;;;;;;;;;;5013657;28;20417;-70
2021/06/26 11:02:00;;;;;;;5.53;5.13;;;;;;;;;;5013887;28;20432;-69
2021/06/26 11:04:26;;;;;;;6.93;6.43;;;;;;;;;;5013952;28;20436;-71
2021/06/26 11:07:22;;;;;;;6.60;6.07;;;;;;;;;;5014219;28;20773;-71
2021/06/26 11:09:48;;;;;;;6.57;6.07;;;;;;;;;;4997061;28;20439;-71
2021/06/26 11:12:16;;;;;;;7.70;7.00;;;;;;;;;;5013979;28;20899;-72
2021/06/26 11:14:56;;;;;;;6.70;6.10;;;;;;;;;;5013306;28;20420;-71
2021/06/26 11:17:23;;;;;;;6.67;6.17;;;;;;;;;;5012395;28;20495;-70
2021/06/26 11:19:50;;;;;;;6.57;6.07;;;;;;;;;;5013450;28;20821;-70
2021/06/26 11:22:16;;;;;;;6.67;6.17;;;;;;;;;;5014039;28;20428;-70
2021/06/26 11:24:43;;;;;;;6.00;5.37;;;;;;;;;;5013885;28;20417;-71
2021/06/26 11:27:14;;;;;;;7.60;6.90;;;;;;;;;;5013791;28;20413;-69
2021/06/26 11:29:42;;;;;;;6.17;5.67;;;;;;;;;;5013067;28;20488;-71
2021/06/26 11:32:20;;;;;;;7.30;6.70;;;;;;;;;;5013341;28;20413;-72
2021/06/26 11:34:59;;;;;;;6.77;6.27;;;;;;;;;;5012971;28;20633;-71
2021/06/26 11:37:52;;;;;;;7.10;6.60;;;;;;;;;;5012809;28;20981;-71
2021/06/26 11:40:22;;;;;;;7.03;6.40;;;;;;;;;;5008088;28;20432;-69
2021/06/26 11:42:51;;;;;;;6.13;5.53;;;;;;;;;;5012793;28;20903;-70
2021/06/26 11:45:19;;;;;;;6.80;6.20;;;;;;;;;;5012352;28;20820;-69
2021/06/26 11:47:45;;;;;;;6.67;6.07;;;;;;;;;;5009866;28;20425;-69
2021/06/26 11:50:15;;;;;;;8.83;6.33;;;;;;;;;;5011976;28;20479;-71
2021/06/26 11:52:41;;;;;;;6.63;6.00;;;;;;;;;;5012666;28;20993;-70
2021/06/26 11:55:08;;;;;;;7.37;6.67;;;;;;;;;;5012698;28;20424;-71
2021/06/26 11:57:33;;;;;;;6.83;6.20;;;;;;;;;;5012852;28;20759;-71
2021/06/26 12:00:00;;;;;;;6.00;5.50;;;;;;;;;;5012184;28;20527;-70
2021/06/26 12:02:33;;;;;;;6.57;6.07;;;;;;;;;;5012572;28;20511;-70
2021/06/26 12:04:59;;;;;;;6.83;6.13;;;;;;;;;;5012261;28;20534;-74
2021/06/26 12:07:35;;;;;;;6.70;6.20;;;;;;;;;;5012045;28;20877;-71
2021/06/26 12:10:02;;;;;;;5.60;5.10;;;;;;;;;;5011242;28;21121;-71
2021/06/26 12:12:33;;;;;;;6.30;5.80;;;;;;;;;;5011368;28;20831;-71
2021/06/26 12:15:00;;;;;;;6.80;6.27;;;;;;;;;;5011668;28;20412;-70
2021/06/26 12:17:26;;;;;;;5.90;5.47;;;;;;;;;;5012185;28;20494;-71
2021/06/26 12:19:59;;;;;;;6.50;6.00;;;;;;;;;;5011987;28;20420;-70
2021/06/26 12:22:27;;;;;;;6.07;5.47;;;;;;;;;;5012066;28;20907;-69
2021/06/26 12:24:53;;;;;;;6.23;5.73;;;;;;;;;;5012116;28;20420;-69
2021/06/26 12:27:21;;;;;;;6.10;5.60;;;;;;;;;;5011689;28;20421;-70
2021/06/26 12:30:00;;;;;;;17.20;15.63;;;;;;;;;;5011608;28;20495;-68
2021/06/26 12:32:33;;;;;;;6.40;5.80;;;;;;;;;;5011914;28;20512;-70
2021/06/26 12:35:00;;;;;;;5.70;5.30;;;;;;;;;;5003103;28;20408;-71
2021/06/26 12:37:29;;;;;;;7.33;6.63;;;;;;;;;;5009992;28;20479;-69
2021/06/26 12:40:01;;;;;;;5.87;5.37;;;;;;;;;;5010095;28;20421;-71
2021/06/26 12:42:27;;;;;;;6.00;5.40;;;;;;;;;;5008751;28;20432;-71
2021/06/26 12:44:55;;;;;;;5.10;4.63;;;;;;;;;;5006363;28;20444;-69
2021/06/26 12:47:22;;;;;;;6.00;5.50;;;;;;;;;;5008210;28;20930;-68
2021/06/26 12:49:52;;;;;;;5.97;5.40;;;;;;;;;;5008459;28;20417;-71
2021/06/26 12:52:18;;;;;;;5.67;5.27;;;;;;;;;;5007582;28;20444;-71
2021/06/26 12:54:50;;;;;;;10.37;5.60;;;;;;;;;;5008442;28;20428;-69
2021/06/26 12:57:17;;;;;;;6.53;5.33;;;;;;;;;;5008471;28;21205;-70
2021/06/26 12:59:43;;;;;;;4.93;4.53;;;;;;;;;;5008220;28;20451;-69
2021/06/26 13:02:10;;;;;;;4.57;4.17;;;;;;;;;;5005596;28;20503;-69
2021/06/26 13:04:36;;;;;;;6.30;3.93;;;;;;;;;;5008922;28;20496;-70
2021/06/26 13:07:02;;;;;;;5.17;4.77;;;;;;;;;;5006855;28;20524;-69
2021/06/26 13:09:37;;;;;;;5.60;5.20;;;;;;;;;;5008448;28;20416;-69
2021/06/26 13:12:14;;;;;;;4.60;4.20;;;;;;;;;;5008955;28;20750;-70
2021/06/26 13:14:41;;;;;;;4.77;4.37;;;;;;;;;;5008515;28;20424;-70
2021/06/26 13:20:11;;;;;;;5.73;5.30;;;;;;;;;;5008085;28;20447;-69
2021/06/26 13:22:41;;;;;;;5.20;4.80;;;;;;;;;;5008782;28;20408;-70
2021/06/26 13:25:08;;;;;;;5.63;5.13;;;;;;;;;;5007546;28;20961;-69
2021/06/26 13:27:34;;;;;;;5.73;5.33;;;;;;;;;;5008378;28;20504;-69
2021/06/26 13:30:00;;;;;;;5.20;4.80;;;;;;;;;;5008171;28;21130;-69
2021/06/26 13:32:26;;;;;;;5.23;4.73;;;;;;;;;;5007028;28;20783;-70
2021/06/26 13:34:52;;;;;;;5.97;5.37;;;;;;;;;;5008127;28;20421;-70
2021/06/26 13:37:19;;;;;;;5.03;4.63;;;;;;;;;;5008363;28;20504;-69
2021/06/26 13:39:45;;;;;;;5.23;4.77;;;;;;;;;;5011247;28;20420;-69
2021/06/26 13:42:11;;;;;;;4.87;4.53;;;;;;;;;;5012017;28;20413;-70
2021/06/26 13:44:37;;;;;;;4.20;3.80;;;;;;;;;;5012051;28;20412;-69
2021/06/26 13:50:07;;;;;;;4.17;3.87;;;;;;;;;;5011710;28;20782;-69
2021/06/26 13:52:33;;;;;;;4.40;4.10;;;;;;;;;;5011514;28;20417;-69
2021/06/26 13:54:59;;;;;;;4.87;4.47;;;;;;;;;;5011610;28;20435;-69
2021/06/26 13:57:25;;;;;;;4.47;4.10;;;;;;;;;;5011776;28;20966;-70
2021/06/26 13:59:51;;;;;;;4.40;4.00;;;;;;;;;;5011687;28;20432;-69
2021/06/26 14:05:21;;;;;;;5.00;4.60;;;;;;;;;;5011190;28;20424;-69
2021/06/26 14:07:47;;;;;;;5.10;4.60;;;;;;;;;;5011467;28;20453;-69
2021/06/26 14:10:13;;;;;;;5.70;4.67;;;;;;;;;;5010092;28;20441;-69
2021/06/26 14:12:39;;;;;;;4.40;4.10;;;;;;;;;;5011451;28;20427;-71
2021/06/26 14:15:05;;;;;;;5.23;4.77;;;;;;;;;;5010907;28;20931;-69
2021/06/26 14:20:35;;;;;;;4.67;4.27;;;;;;;;;;5010801;28;20438;-69
2021/06/26 14:23:01;;;;;;;4.30;4.00;;;;;;;;;;5011294;28;20504;-70
2021/06/26 14:25:28;;;;;;;12.43;4.90;;;;;;;;;;5011726;28;20462;-69
2021/06/26 14:27:54;;;;;;;5.03;4.63;;;;;;;;;;5011099;28;20413;-71
2021/06/26 14:30:20;;;;;;;4.40;4.10;;;;;;;;;;5010633;28;20796;-69
2021/06/26 14:32:46;;;;;;;4.57;4.13;;;;;;;;;;5011349;28;20447;-70
2021/06/26 14:35:12;;;;;;;4.73;4.33;;;;;;;;;;5011248;28;20421;-71
2021/06/26 14:37:38;;;;;;;4.87;4.47;;;;;;;;;;5012293;28;20773;-70
2021/06/26 14:40:05;;;;;;;4.77;4.47;;;;;;;;;;5012205;28;20421;-70
2021/06/26 14:42:32;;;;;;;4.20;3.90;;;;;;;;;;5012272;28;20980;-70
2021/06/26 14:44:57;;;;;;;5.20;4.70;;;;;;;;;;5010830;28;20532;-69
2021/06/26 14:50:27;;;;;;;6.13;4.80;;;;;;;;;;5011758;28;20521;-69
2021/06/26 14:52:53;;;;;;;5.53;5.10;;;;;;;;;;5011978;28;20475;-69
2021/06/26 14:55:19;;;;;;;5.50;5.00;;;;;;;;;;5011934;28;20468;-69
2021/06/26 14:57:46;;;;;;;6.03;5.50;;;;;;;;;;5010809;28;20452;-70
2021/06/26 15:00:12;;;;;;;5.50;5.10;;;;;;;;;;5011810;28;20420;-70
2021/06/26 15:05:42;;;;;;;5.93;4.83;;;;;;;;;;5012114;28;21001;-69
2021/06/26 15:08:08;;;;;;;5.70;4.70;;;;;;;;;;5011749;28;20512;-69
2021/06/26 15:10:34;;;;;;;6.00;5.27;;;;;;;;;;5011972;28;20437;-71
2021/06/26 15:13:00;;;;;;;5.73;5.30;;;;;;;;;;5011925;28;20924;-74
2021/06/26 15:15:26;;;;;;;4.80;4.40;;;;;;;;;;5010832;28;20532;-70
2021/06/26 15:17:52;;;;;;;5.40;4.90;;;;;;;;;;5012954;28;20554;-69
2021/06/26 15:20:18;;;;;;;5.83;5.43;;;;;;;;;;5013512;28;20440;-72
2021/06/26 15:22:44;;;;;;;5.10;4.70;;;;;;;;;;5013752;28;20462;-69
2021/06/26 15:25:10;;;;;;;5.17;4.77;;;;;;;;;;5013527;28;20856;-71
2021/06/26 15:27:36;;;;;;;5.70;4.83;;;;;;;;;;5013793;28;20509;-70
2021/06/26 15:30:03;;;;;;;5.10;4.80;;;;;;;;;;5012999;28;20477;-71
2021/06/26 15:35:33;;;;;;;5.53;5.13;;;;;;;;;;5013543;28;20455;-71
2021/06/26 15:37:59;;;;;;;5.40;4.90;;;;;;;;;;5013506;28;20437;-70
2021/06/26 15:40:26;;;;;;;5.17;4.77;;;;;;;;;;5013711;28;20592;-71
2021/06/26 15:42:52;;;;;;;4.97;4.47;;;;;;;;;;5013391;28;20436;-70
2021/06/26 15:45:18;;;;;;;5.50;4.83;;;;;;;;;;5012955;28;20413;-71
2021/06/26 15:50:48;;;;;;;5.00;4.60;;;;;;;;;;5011935;28;20428;-68
2021/06/26 15:53:14;;;;;;;6.67;5.00;;;;;;;;;;5012834;28;20479;-69
2021/06/26 15:55:41;;;;;;;4.77;4.37;;;;;;;;;;5013212;28;20562;-69
2021/06/26 15:58:07;;;;;;;4.60;4.20;;;;;;;;;;5013027;28;20495;-71
2021/06/26 16:00:33;;;;;;;4.00;3.70;;;;;;;;;;5012883;28;20500;-70
2021/06/26 16:06:03;;;;;;;6.77;5.07;;;;;;;;;;5012925;28;20634;-70
2021/06/26 16:08:29;;;;;;;6.73;5.27;;;;;;;;;;5012694;28;20865;-71
2021/06/26 16:10:55;;;;;;;5.00;4.60;;;;;;;;;;5012585;28;20416;-70
2021/06/26 16:13:21;;;;;;;5.60;5.20;;;;;;;;;;4995102;28;20424;-69
2021/06/26 16:15:47;;;;;;;4.63;4.23;;;;;;;;;;5012398;28;20967;-71
2021/06/26 16:18:13;;;;;;;4.57;4.27;;;;;;;;;;5011331;28;20538;-70
2021/06/26 16:20:39;;;;;;;4.80;4.00;;;;;;;;;;5012535;28;20428;-70
2021/06/26 16:23:05;;;;;;;4.17;3.77;;;;;;;;;;5012580;28;20878;-70
2021/06/26 16:25:31;;;;;;;4.20;3.80;;;;;;;;;;5012661;28;20435;-70
2021/06/26 16:27:57;;;;;;;5.60;4.10;;;;;;;;;;5012522;28;20891;-70
2021/06/26 16:30:23;;;;;;;4.30;3.97;;;;;;;;;;5012088;28;20494;-70